Time;durP1;ratioP1;P1;durP2;ratioP2;P2;SDS_P1;SDS_P2;PMS_P1;PMS_P2;Temp;Humidity;BMP_temperature;BMP_pressure;BME280_temperature;BME280_humidity;BME280_pressure;Samples;Min_cycle;Max_cycle;Signal;HPM_P1;HPM_P2
2023/08/12 00:00:55;;;;;;;0.00;0.00;;;;;;;19.77;100.00;101714.63;5072588;28;20103;-41
2023/08/12 00:03:21;;;;;;;0.00;0.00;;;;;;;19.78;100.00;101721.78;5072433;28;20039;-42
2023/08/12 00:05:46;;;;;;;0.00;0.00;;;;;;;19.77;100.00;101720.06;5073097;28;20034;-43
2023/08/12 00:08:12;;;;;;;0.00;0.00;;;;;;;19.81;100.00;101719.41;5072647;28;20032;-43
2023/08/12 00:10:37;;;;;;;0.00;0.00;;;;;;;19.78;100.00;101717.13;5072342;28;20528;-44
2023/08/12 00:13:03;;;;;;;0.00;0.00;;;;;;;19.80;100.00;101720.50;5072317;28;20020;-45
2023/08/12 00:15:28;;;;;;;0.00;0.00;;;;;;;19.81;100.00;101711.22;5072297;28;20021;-44
2023/08/12 00:17:54;;;;;;;0.00;0.00;;;;;;;19.81;100.00;101704.94;5072620;28;20043;-45
2023/08/12 00:20:19;;;;;;;0.00;0.00;;;;;;;19.82;100.00;101707.41;5071696;28;20078;-44
2023/08/12 00:22:44;;;;;;;0.00;0.00;;;;;;;19.82;100.00;101704.69;5072608;28;20074;-47
2023/08/12 00:25:10;;;;;;;0.00;0.00;;;;;;;19.78;100.00;101700.75;5072632;28;20036;-42
2023/08/12 00:27:37;;;;;;;0.00;0.00;;;;;;;19.80;100.00;101695.91;5072717;28;20037;-42
2023/08/12 00:30:03;;;;;;;0.00;0.00;;;;;;;19.81;100.00;101699.47;5072136;28;20500;-45
2023/08/12 00:32:28;;;;;;;0.00;0.00;;;;;;;19.82;100.00;101688.31;5072107;28;20104;-43
2023/08/12 00:34:54;;;;;;;0.00;0.00;;;;;;;19.81;100.00;101685.81;5072110;28;20031;-47
2023/08/12 00:37:19;;;;;;;0.00;0.00;;;;;;;19.83;100.00;101680.97;5072414;28;20103;-43
2023/08/12 00:39:45;;;;;;;0.00;0.00;;;;;;;19.81;100.00;101677.63;5071846;28;20037;-43
2023/08/12 00:42:10;;;;;;;0.00;0.00;;;;;;;19.87;100.00;101680.28;5072111;28;20363;-47
2023/08/12 00:44:35;;;;;;;0.00;0.00;;;;;;;19.87;100.00;101680.28;5071891;28;20108;-43
2023/08/12 00:47:01;;;;;;;0.00;0.00;;;;;;;19.85;100.00;101667.91;5072165;28;20032;-45
2023/08/12 00:49:27;;;;;;;0.00;0.00;;;;;;;19.85;100.00;101671.50;5053927;28;20036;-43
2023/08/12 00:51:52;;;;;;;0.00;0.00;;;;;;;19.84;100.00;101678.00;5072071;28;20510;-45
2023/08/12 00:54:19;;;;;;;0.00;0.00;;;;;;;19.84;100.00;101678.00;5072035;28;20033;-44
2023/08/12 00:56:45;;;;;;;0.00;0.00;;;;;;;19.86;100.00;101680.50;5054338;28;20383;-48
2023/08/12 00:59:11;;;;;;;0.00;0.00;;;;;;;19.84;100.00;101669.81;5053554;28;20048;-43
2023/08/12 01:01:40;;;;;;;0.00;0.00;;;;;;;19.81;100.00;101672.97;5053652;28;20029;-44
2023/08/12 01:04:05;;;;;;;0.00;0.00;;;;;;;19.84;100.00;101668.97;5071831;28;20036;-44
2023/08/12 01:06:31;;;;;;;0.00;0.00;;;;;;;19.82;100.00;101668.34;5071905;28;20040;-45
2023/08/12 01:08:56;;;;;;;0.00;0.00;;;;;;;19.82;100.00;101658.25;5071903;28;20055;-44
2023/08/12 01:11:33;;;;;;;0.00;0.00;;;;;;;19.87;100.00;101661.16;5071626;28;20060;-46
2023/08/12 01:14:11;;;;;;;0.00;0.00;;;;;;;19.87;100.00;101647.50;5070642;28;20037;-43
2023/08/12 01:16:40;;;;;;;0.00;0.00;;;;;;;19.88;100.00;101641.00;5053888;28;20036;-45
2023/08/12 01:19:10;;;;;;;0.00;0.00;;;;;;;19.90;100.00;101644.31;5054171;28;20028;-48
2023/08/12 01:21:41;;;;;;;0.00;0.00;;;;;;;19.92;100.00;101641.38;5053801;28;20017;-45
2023/08/12 01:24:07;;;;;;;0.00;0.00;;;;;;;19.87;100.00;101639.31;5071952;28;20032;-44
2023/08/12 01:26:32;;;;;;;0.00;0.00;;;;;;;19.88;100.00;101646.44;5053605;28;20123;-46
2023/08/12 01:28:58;;;;;;;0.00;0.00;;;;;;;19.85;100.00;101644.16;5071772;28;20036;-48
2023/08/12 01:31:32;;;;;;;0.00;0.00;;;;;;;19.78;100.00;101632.47;5073273;28;20660;-44
2023/08/12 01:34:23;;;;;;;0.00;0.00;;;;;;;19.79;100.00;101639.59;5057425;28;20119;-46
2023/08/12 01:36:55;;;;;;;0.00;0.00;;;;;;;19.82;100.00;101641.03;5075555;28;20032;-45
2023/08/12 01:39:21;;;;;;;0.00;0.00;;;;;;;19.83;100.00;101638.09;5057459;28;20045;-44
2023/08/12 01:41:47;;;;;;;0.00;0.00;;;;;;;19.88;100.00;101635.53;5057140;28;20082;-49
2023/08/12 01:44:12;;;;;;;0.00;0.00;;;;;;;19.89;100.00;101631.72;5075396;28;20526;-49
2023/08/12 01:46:38;;;;;;;0.00;0.00;;;;;;;19.92;100.00;101628.53;5057802;28;20422;-48
2023/08/12 01:49:03;;;;;;;0.00;0.00;;;;;;;19.98;100.00;101628.69;5075484;28;20406;-46
2023/08/12 01:51:29;;;;;;;0.00;0.00;;;;;;;19.98;100.00;101628.69;5075603;28;20020;-45
2023/08/12 01:53:54;;;;;;;0.00;0.00;;;;;;;19.97;100.00;101625.13;5075447;28;20383;-45
2023/08/12 01:56:20;;;;;;;0.00;0.00;;;;;;;20.01;100.00;101622.78;5075557;28;20039;-44
2023/08/12 01:58:45;;;;;;;0.00;0.00;;;;;;;20.01;100.00;101611.84;5075616;28;20056;-45
2023/08/12 02:01:10;;;;;;;0.00;0.00;;;;;;;20.04;100.00;101608.69;5075371;28;20561;-43
2023/08/12 02:03:36;;;;;;;0.00;0.00;;;;;;;20.03;100.00;101610.56;5075033;28;20140;-45
2023/08/12 02:06:01;;;;;;;0.00;0.00;;;;;;;20.17;100.00;101603.91;5075196;28;20032;-45
2023/08/12 02:08:27;;;;;;;0.00;0.00;;;;;;;20.07;100.00;101602.75;5075027;28;20061;-45
2023/08/12 02:10:52;;;;;;;0.00;0.00;;;;;;;19.95;100.00;101608.13;5074574;28;20051;-47
2023/08/12 02:13:18;;;;;;;0.00;0.00;;;;;;;20.01;100.00;101606.38;5074708;28;20040;-44
2023/08/12 02:15:43;;;;;;;0.00;0.00;;;;;;;19.95;100.00;101613.59;5074921;28;20024;-46
2023/08/12 02:18:08;;;;;;;0.00;0.00;;;;;;;19.98;100.00;101612.31;5074579;28;20100;-46
2023/08/12 02:20:34;;;;;;;0.00;0.00;;;;;;;19.93;100.00;101613.84;5074754;28;20040;-48
2023/08/12 02:22:59;;;;;;;0.00;0.00;;;;;;;19.96;100.00;101615.28;5074410;28;20032;-44
2023/08/12 02:25:24;;;;;;;0.00;0.00;;;;;;;19.92;100.00;101609.41;5074946;28;20631;-48
2023/08/12 02:27:50;;;;;;;0.00;0.00;;;;;;;19.87;100.00;101617.44;5074414;28;20064;-45
2023/08/12 02:30:15;;;;;;;0.00;0.00;;;;;;;19.74;100.00;101620.31;5074564;28;20040;-44
2023/08/12 02:32:43;;;;;;;0.00;0.00;;;;;;;19.71;100.00;101624.31;5074204;28;20481;-48
2023/08/12 02:35:08;;;;;;;;;;;;;;;19.66;100.00;101626.00;5074928;28;20461;-42
2023/08/12 02:37:34;;;;;;;0.00;0.00;;;;;;;19.66;100.00;101620.56;5074188;28;19909;-44
2023/08/12 02:39:59;;;;;;;0.00;0.00;;;;;;;19.63;100.00;101629.19;5073973;28;20052;-46
2023/08/12 02:42:24;;;;;;;0.00;0.00;;;;;;;19.59;100.00;101625.22;5072944;28;20016;-44
2023/08/12 02:44:50;;;;;;;0.00;0.00;;;;;;;19.55;100.00;101633.03;5074248;28;20523;-44
2023/08/12 02:47:15;;;;;;;0.00;0.00;;;;;;;19.76;100.00;101625.56;5073749;28;20029;-43
2023/08/12 02:49:40;;;;;;;0.00;0.00;;;;;;;19.71;100.00;101624.31;5073905;28;20073;-46
2023/08/12 02:52:06;;;;;;;0.00;0.00;;;;;;;19.67;100.00;101622.28;5073390;28;20032;-45
2023/08/12 02:54:31;;;;;;;0.00;0.00;;;;;;;19.61;100.00;101623.13;5073844;28;20055;-43
2023/08/12 02:56:56;;;;;;;0.00;0.00;;;;;;;19.62;100.00;101624.81;5074031;28;20462;-46
2023/08/12 02:59:22;;;;;;;0.00;0.00;;;;;;;19.63;100.00;101621.00;5073977;28;20066;-45
2023/08/12 03:01:47;;;;;;;0.00;0.00;;;;;;;19.66;100.00;101621.41;5073467;28;20040;-43
2023/08/12 03:04:12;;;;;;;0.00;0.00;;;;;;;19.62;100.00;101614.72;5074192;28;20036;-43
2023/08/12 03:06:38;;;;;;;0.00;0.00;;;;;;;19.59;100.00;101608.84;5074082;28;20024;-45
2023/08/12 03:09:03;;;;;;;0.00;0.00;;;;;;;19.62;100.00;101608.44;5073962;28;20050;-47
2023/08/12 03:11:28;;;;;;;0.00;0.00;;;;;;;19.65;100.00;101602.50;5073474;28;20016;-47
2023/08/12 03:13:54;;;;;;;0.00;0.00;;;;;;;19.68;100.00;101608.38;5073547;28;20044;-43
2023/08/12 03:16:19;;;;;;;0.00;0.00;;;;;;;19.67;100.00;101600.44;5073966;28;20028;-45
2023/08/12 03:18:45;;;;;;;0.00;0.00;;;;;;;19.72;100.00;101600.56;5055832;28;20383;-44
2023/08/12 03:21:11;;;;;;;0.00;0.00;;;;;;;19.70;100.00;101599.97;5073692;28;20099;-43
2023/08/12 03:23:37;;;;;;;0.00;0.00;;;;;;;19.73;100.00;101591.31;5073440;28;20115;-46
2023/08/12 03:26:03;;;;;;;0.00;0.00;;;;;;;19.76;100.00;101585.41;5074003;28;20020;-43
2023/08/12 03:28:29;;;;;;;0.00;0.00;;;;;;;19.78;100.00;101580.56;5073455;28;20051;-41
2023/08/12 03:30:54;;;;;;;0.00;0.00;;;;;;;19.87;100.00;101570.19;5073735;28;20127;-44
2023/08/12 03:33:19;;;;;;;0.00;0.00;;;;;;;19.86;100.00;101577.53;5073119;28;20044;-45
2023/08/12 03:35:48;;;;;;;0.00;0.00;;;;;;;19.90;100.00;101570.53;5073689;28;20025;-45
2023/08/12 03:38:14;;;;;;;0.00;0.00;;;;;;;19.85;100.00;101567.69;5073175;28;20054;-44
2023/08/12 03:40:40;;;;;;;0.00;0.00;;;;;;;19.84;100.00;101568.72;5073399;28;20032;-47
2023/08/12 03:43:06;;;;;;;0.00;0.00;;;;;;;19.78;100.00;101564.19;5073054;28;20078;-46
2023/08/12 03:45:31;;;;;;;0.00;0.00;;;;;;;19.76;100.00;101571.75;5073242;28;20016;-47
2023/08/12 03:47:56;;;;;;;0.00;0.00;;;;;;;19.72;100.00;101565.06;5073041;28;20021;-47
2023/08/12 03:50:22;;;;;;;0.00;0.00;;;;;;;19.67;100.00;101567.66;5072983;28;20067;-47
2023/08/12 03:52:47;;;;;;;0.00;0.00;;;;;;;19.79;100.00;101554.91;5072796;28;20094;-45
2023/08/12 03:55:12;;;;;;;0.00;0.00;;;;;;;19.71;100.00;101549.75;5072840;28;20111;-43
2023/08/12 03:57:38;;;;;;;0.00;0.00;;;;;;;19.68;100.00;101555.66;5072632;28;20074;-46
2023/08/12 04:00:04;;;;;;;0.00;0.00;;;;;;;19.66;100.00;101542.22;5072907;28;20157;-45
2023/08/12 04:02:29;;;;;;;0.00;0.00;;;;;;;19.69;100.00;101544.50;5072606;28;20051;-42
2023/08/12 04:04:55;;;;;;;0.00;0.00;;;;;;;19.66;100.00;101544.09;5073600;28;20081;-43
2023/08/12 04:07:20;;;;;;;0.00;0.00;;;;;;;19.77;100.00;101540.63;5073764;28;20032;-42
2023/08/12 04:09:45;;;;;;;0.00;0.00;;;;;;;19.82;100.00;101538.06;5073291;28;20107;-44
2023/08/12 04:12:11;;;;;;;0.00;0.00;;;;;;;19.74;100.00;101547.38;5072975;28;20032;-44
2023/08/12 04:14:36;;;;;;;0.00;0.00;;;;;;;19.73;100.00;101539.44;5072952;28;20032;-44
2023/08/12 04:17:01;;;;;;;0.00;0.00;;;;;;;19.75;100.00;101534.59;5073426;28;20040;-45
2023/08/12 04:19:27;;;;;;;0.00;0.00;;;;;;;19.81;100.00;101541.88;5061603;28;20025;-45
2023/08/12 04:21:53;;;;;;;0.00;0.00;;;;;;;19.83;100.00;101539.75;5051715;28;20036;-45
2023/08/12 04:24:18;;;;;;;0.00;0.00;;;;;;;19.80;100.00;101539.34;5068472;28;20037;-48
2023/08/12 04:26:43;;;;;;;0.00;0.00;;;;;;;19.74;100.00;101531.00;5070973;28;20467;-43
2023/08/12 04:29:09;;;;;;;0.00;0.00;;;;;;;19.78;100.00;101525.94;5070909;28;20162;-46
2023/08/12 04:31:34;;;;;;;0.00;0.00;;;;;;;19.80;100.00;101528.44;5071516;28;20028;-45
2023/08/12 04:34:00;;;;;;;0.00;0.00;;;;;;;19.83;100.00;101526.09;5052766;28;20125;-44
2023/08/12 04:36:25;;;;;;;0.00;0.00;;;;;;;19.78;100.00;101519.66;5035792;28;20032;-45
2023/08/12 04:38:50;;;;;;;0.00;0.00;;;;;;;19.76;100.00;101522.59;5071277;28;20025;-43
2023/08/12 04:41:16;;;;;;;0.00;0.00;;;;;;;19.76;100.00;101528.06;5071419;28;20128;-45
2023/08/12 04:43:41;;;;;;;0.00;0.00;;;;;;;19.76;100.00;101522.59;5070661;28;20036;-44
2023/08/12 04:46:08;;;;;;;0.00;0.00;;;;;;;19.78;100.00;101520.47;5070584;28;20028;-45
2023/08/12 04:48:33;;;;;;;0.00;0.00;;;;;;;19.81;100.00;101513.72;5070971;28;20079;-42
2023/08/12 04:51:01;;;;;;;0.00;0.00;;;;;;;19.81;100.00;101502.81;5070803;28;20650;-46
2023/08/12 04:53:26;;;;;;;0.00;0.00;;;;;;;19.78;100.00;101500.53;5070933;28;20043;-45
2023/08/12 04:55:54;;;;;;;0.00;0.00;;;;;;;19.81;100.00;101503.63;5070787;28;20033;-46
2023/08/12 04:58:19;;;;;;;;;;;;;;;19.81;100.00;101500.06;5071055;28;20052;-44
2023/08/12 05:00:45;;;;;;;0.00;0.00;;;;;;;19.77;100.00;101501.56;5070905;28;20424;-44
2023/08/12 05:03:11;;;;;;;0.00;0.00;;;;;;;19.77;100.00;101496.94;5070607;28;20040;-44
2023/08/12 05:05:36;;;;;;;0.00;0.00;;;;;;;19.83;100.00;101495.22;5070167;28;20028;-44
2023/08/12 05:08:02;;;;;;;0.00;0.00;;;;;;;19.80;100.00;101501.97;5070610;28;20441;-44
2023/08/12 05:10:27;;;;;;;0.00;0.00;;;;;;;19.82;100.00;101497.09;5070982;28;20045;-45
2023/08/12 05:12:54;;;;;;;0.00;0.00;;;;;;;19.83;100.00;101501.50;5070718;28;20044;-44
2023/08/12 05:15:19;;;;;;;0.00;0.00;;;;;;;19.90;100.00;101501.41;5070541;28;20035;-47
2023/08/12 05:17:45;;;;;;;0.00;0.00;;;;;;;19.86;100.00;101505.69;5070441;28;20025;-48
2023/08/12 05:20:10;;;;;;;0.00;0.00;;;;;;;19.67;100.00;101507.59;5070258;28;20029;-44
2023/08/12 05:22:36;;;;;;;0.00;0.00;;;;;;;19.65;100.00;101513.22;5052420;28;20039;-42
2023/08/12 05:25:01;;;;;;;0.00;0.00;;;;;;;19.61;100.00;101516.63;5052595;28;20059;-42
2023/08/12 05:27:26;;;;;;;0.00;0.00;;;;;;;19.46;100.00;101530.66;5070121;28;20024;-44
2023/08/12 05:29:52;;;;;;;0.00;0.00;;;;;;;19.37;100.00;101524.63;5070732;28;20033;-42
2023/08/12 05:32:17;;;;;;;0.00;0.00;;;;;;;19.30;100.00;101535.59;5073341;28;20039;-42
2023/08/12 05:34:43;;;;;;;0.00;0.00;;;;;;;19.27;100.00;101532.47;5071900;28;20024;-43
2023/08/12 05:37:09;;;;;;;0.00;0.00;;;;;;;19.31;100.00;101541.91;5070172;28;20032;-44
2023/08/12 05:39:34;;;;;;;0.00;0.00;;;;;;;19.23;100.00;101539.44;5071974;28;20040;-41
2023/08/12 05:41:59;;;;;;;0.00;0.00;;;;;;;19.21;100.00;101541.56;5073041;28;20025;-42
2023/08/12 05:44:25;;;;;;;0.00;0.00;;;;;;;19.21;100.00;101541.56;5071791;28;20036;-41
2023/08/12 05:46:50;;;;;;;0.00;0.00;;;;;;;19.22;100.00;101548.69;5071349;28;20060;-45
2023/08/12 05:49:15;;;;;;;0.00;0.00;;;;;;;19.24;100.00;101552.84;5070362;28;20025;-44
2023/08/12 05:51:41;;;;;;;0.00;0.00;;;;;;;19.17;100.00;101548.50;5069599;28;20047;-44
2023/08/12 05:54:06;;;;;;;0.00;0.00;;;;;;;19.12;100.00;101546.47;5069946;28;20051;-44
2023/08/12 05:56:32;;;;;;;0.00;0.00;;;;;;;19.20;100.00;101550.81;5069674;28;20032;-47
2023/08/12 05:58:57;;;;;;;0.00;0.00;;;;;;;19.25;100.00;101554.53;5069711;28;20048;-45
2023/08/12 06:01:23;;;;;;;0.00;0.00;;;;;;;19.18;100.00;101542.84;5051918;28;20036;-45
2023/08/12 06:03:48;;;;;;;0.00;0.00;;;;;;;19.21;100.00;101555.19;5070019;28;20032;-45
2023/08/12 06:06:13;;;;;;;0.00;0.00;;;;;;;19.25;100.00;101546.34;5071214;28;20032;-43
2023/08/12 06:08:39;;;;;;;0.00;0.00;;;;;;;19.27;100.00;101541.53;5073967;28;20163;-42
2023/08/12 06:11:04;;;;;;;0.00;0.00;;;;;;;19.21;100.00;101549.75;5070384;28;20044;-43
2023/08/12 06:13:30;;;;;;;0.00;0.00;;;;;;;19.16;100.00;101544.13;5069356;28;20078;-43
2023/08/12 06:15:55;;;;;;;0.00;0.00;;;;;;;19.13;100.00;101550.03;5066180;28;20501;-47
2023/08/12 06:18:20;;;;;;;0.00;0.00;;;;;;;19.18;100.00;101547.47;5071236;28;20047;-41
2023/08/12 06:20:46;;;;;;;0.00;0.00;;;;;;;19.20;100.00;101545.34;5073527;28;20101;-44
2023/08/12 06:23:11;;;;;;;0.00;0.00;;;;;;;19.22;100.00;101548.69;5072378;28;20435;-44
2023/08/12 06:25:37;;;;;;;0.00;0.00;;;;;;;19.21;100.00;101547.00;5052000;28;20036;-46
2023/08/12 06:28:04;;;;;;;0.00;0.00;;;;;;;19.18;100.00;101550.19;5054792;28;20478;-46
2023/08/12 06:30:30;;;;;;;0.00;0.00;;;;;;;19.16;100.00;101544.94;5072359;28;20050;-44
2023/08/12 06:32:55;;;;;;;0.00;0.00;;;;;;;19.13;100.00;101539.09;5072589;28;20142;-46
2023/08/12 06:35:21;;;;;;;0.00;0.00;;;;;;;19.21;100.00;101538.81;5069185;28;20028;-44
2023/08/12 06:37:46;;;;;;;0.00;0.00;;;;;;;19.22;100.00;101543.22;5068437;28;20043;-45
2023/08/12 06:40:13;;;;;;;0.00;0.00;;;;;;;19.28;100.00;101539.63;5070354;28;20056;-43
2023/08/12 06:42:38;;;;;;;0.00;0.00;;;;;;;19.27;100.00;101546.13;5071853;28;20037;-47
2023/08/12 06:45:04;;;;;;;0.00;0.00;;;;;;;19.31;100.00;101547.34;5072592;28;20047;-43
2023/08/12 06:47:29;;;;;;;0.00;0.00;;;;;;;19.38;100.00;101547.28;5069673;28;20061;-41
2023/08/12 06:49:55;;;;;;;0.00;0.00;;;;;;;19.18;100.00;101551.03;5074117;28;20051;-43
2023/08/12 06:52:20;;;;;;;0.00;0.00;;;;;;;19.02;100.00;101562.47;5076763;28;20024;-44
2023/08/12 06:54:46;;;;;;;0.00;0.00;;;;;;;18.92;100.00;101560.22;5074579;28;20036;-42
2023/08/12 06:57:11;;;;;;;0.00;0.00;;;;;;;18.80;100.00;101572.88;5071024;28;20043;-45
2023/08/12 06:59:37;;;;;;;0.00;0.00;;;;;;;18.54;100.00;101563.78;5068864;28;20079;-44
2023/08/12 07:02:03;;;;;;;0.00;0.00;;;;;;;18.39;100.00;101563.22;5072681;28;20040;-42
2023/08/12 07:04:28;;;;;;;0.00;0.00;;;;;;;18.34;100.00;101546.69;5074469;28;20069;-42
2023/08/12 07:06:54;;;;;;;0.00;0.00;;;;;;;18.11;100.00;101537.09;5073120;28;20423;-42
2023/08/12 07:09:19;;;;;;;0.00;0.00;;;;;;;17.96;100.00;101531.94;5070762;28;20151;-47
2023/08/12 07:11:44;;;;;;;0.00;0.00;;;;;;;17.96;100.00;101521.03;5069218;28;20056;-44
2023/08/12 07:14:10;;;;;;;0.00;0.00;;;;;;;17.96;100.00;101522.94;5072112;28;20048;-45
2023/08/12 07:16:35;;;;;;;0.00;0.00;;;;;;;17.97;100.00;101527.31;5053726;28;20484;-43
2023/08/12 07:19:01;;;;;;;0.00;0.00;;;;;;;17.88;100.00;101515.00;5068066;28;20041;-44
2023/08/12 07:21:26;;;;;;;0.00;0.00;;;;;;;17.90;100.00;101513.72;5071821;28;20027;-43
2023/08/12 07:23:52;;;;;;;0.00;0.00;;;;;;;17.91;100.00;101525.47;5071301;28;20455;-44
2023/08/12 07:26:17;;;;;;;0.00;0.00;;;;;;;17.86;100.00;101512.47;5051369;28;20050;-42
2023/08/12 07:28:42;;;;;;;0.00;0.00;;;;;;;17.83;100.00;101517.53;5068187;28;20056;-44
2023/08/12 07:31:08;;;;;;;0.00;0.00;;;;;;;17.83;100.00;101496.56;5068761;28;20056;-41
2023/08/12 07:33:34;;;;;;;0.00;0.00;;;;;;;17.80;100.00;101496.16;5069382;28;20058;-42
2023/08/12 07:36:00;;;;;;;0.00;0.00;;;;;;;17.87;100.00;101502.41;5065257;28;20399;-46
2023/08/12 07:38:25;;;;;;;0.00;0.00;;;;;;;17.87;100.00;101513.31;5063614;28;20036;-48
2023/08/12 07:40:50;;;;;;;0.00;0.00;;;;;;;17.95;100.00;101515.81;5067079;28;20043;-44
2023/08/12 07:43:16;;;;;;;0.00;0.00;;;;;;;17.95;100.00;101523.97;5071383;28;20031;-44
2023/08/12 07:45:41;;;;;;;0.00;0.00;;;;;;;17.91;100.00;101522.75;5071824;28;20063;-45
2023/08/12 07:48:07;;;;;;;0.00;0.00;;;;;;;17.90;100.00;101516.44;5053132;28;20032;-42
2023/08/12 07:50:32;;;;;;;0.00;0.00;;;;;;;17.84;100.00;101524.63;5071513;28;20463;-44
2023/08/12 07:52:57;;;;;;;0.00;0.00;;;;;;;17.87;100.00;101519.59;5071807;28;20027;-42
2023/08/12 07:55:23;;;;;;;0.00;0.00;;;;;;;17.84;100.00;101530.91;5071750;28;20109;-43
2023/08/12 07:57:48;;;;;;;0.00;0.00;;;;;;;17.77;100.00;101530.91;5072722;28;20033;-45
2023/08/12 08:00:14;;;;;;;0.00;0.00;;;;;;;17.75;100.00;101505.78;5073448;28;20086;-41
2023/08/12 08:02:39;;;;;;;0.00;0.00;;;;;;;17.75;100.00;101485.91;5073020;28;20390;-44
2023/08/12 08:05:05;;;;;;;0.00;0.00;;;;;;;17.86;100.00;101484.44;5073462;28;20112;-45
2023/08/12 08:07:31;;;;;;;0.00;0.00;;;;;;;17.92;100.00;101475.38;5073183;28;20426;-44
2023/08/12 08:09:57;;;;;;;0.00;0.00;;;;;;;17.93;100.00;101474.31;5055078;28;20027;-44
2023/08/12 08:12:22;;;;;;;0.00;0.00;;;;;;;18.05;100.00;101471.78;5071908;28;20103;-42
2023/08/12 08:14:47;;;;;;;0.00;0.00;;;;;;;18.21;100.00;101477.56;5072547;28;20025;-44
2023/08/12 08:17:13;;;;;;;0.00;0.00;;;;;;;18.28;100.00;101479.44;5053774;28;20039;-45
2023/08/12 08:19:38;;;;;;;0.00;0.00;;;;;;;18.16;100.00;101471.91;5071950;28;20463;-45
2023/08/12 08:22:04;;;;;;;0.00;0.00;;;;;;;18.31;100.00;101481.72;5072686;28;20539;-43
2023/08/12 08:24:29;;;;;;;0.00;0.00;;;;;;;18.45;100.00;101483.31;5072688;28;20035;-45
2023/08/12 08:26:54;;;;;;;0.00;0.00;;;;;;;18.65;100.00;101494.94;5072572;28;20056;-44
2023/08/12 08:29:21;;;;;;;0.00;0.00;;;;;;;18.81;100.00;101503.66;5073437;28;20032;-44
2023/08/12 08:31:47;;;;;;;0.00;0.00;;;;;;;18.76;100.00;101498.03;5072488;28;20466;-43
2023/08/12 08:34:12;;;;;;;0.00;0.00;;;;;;;18.87;100.00;101489.13;5072501;28;20031;-42
2023/08/12 08:36:38;;;;;;;0.00;0.00;;;;;;;18.89;100.00;101483.47;5073223;28;20024;-43
2023/08/12 08:39:03;;;;;;;0.00;0.00;;;;;;;18.94;100.00;101476.28;5054754;28;20040;-43
2023/08/12 08:41:30;;;;;;;0.00;0.00;;;;;;;19.19;100.00;101473.53;5072289;28;20371;-43
2023/08/12 08:44:01;;;;;;;0.00;0.00;;;;;;;19.52;100.00;101473.22;5071770;28;20104;-43
2023/08/12 08:46:27;;;;;;;0.00;0.00;;;;;;;19.73;100.00;101465.69;5070881;28;20029;-43
2023/08/12 08:48:52;;;;;;;0.00;0.00;;;;;;;19.93;100.00;101446.31;5070580;28;20113;-44
2023/08/12 08:51:19;;;;;;;0.00;0.00;;;;;;;20.36;100.00;101446.16;5070319;28;20017;-44
2023/08/12 08:53:45;;;;;;;0.00;0.00;;;;;;;20.85;100.00;101459.75;5052620;28;20166;-42
2023/08/12 08:56:11;;;;;;;0.00;0.00;;;;;;;21.26;100.00;101445.16;5052779;28;20115;-45
2023/08/12 08:58:38;;;;;;;0.00;0.00;;;;;;;21.65;100.00;101415.38;5070409;28;20052;-47
2023/08/12 09:01:06;;;;;;;0.00;0.00;;;;;;;22.54;100.00;101406.69;5070496;28;20052;-45
2023/08/12 09:03:32;;;;;;;0.00;0.00;;;;;;;23.51;100.00;101409.25;5052914;28;20024;-45
2023/08/12 09:05:59;;;;;;;0.00;0.00;;;;;;;23.73;100.00;101417.56;5070483;28;20032;-47
2023/08/12 09:08:25;;;;;;;0.00;0.00;;;;;;;23.54;100.00;101414.22;5052235;28;20024;-45
2023/08/12 09:10:51;;;;;;;0.00;0.00;;;;;;;22.99;100.00;101422.25;5052534;28;20029;-45
2023/08/12 09:13:18;;;;;;;0.00;0.00;;;;;;;22.45;100.00;101426.53;5052170;28;20074;-45
2023/08/12 09:15:44;;;;;;;0.00;0.00;;;;;;;21.70;100.00;101422.88;5070800;28;20024;-46
2023/08/12 09:18:09;;;;;;;0.00;0.00;;;;;;;21.64;100.00;101419.19;5070025;28;20038;-43
2023/08/12 09:20:35;;;;;;;0.00;0.00;;;;;;;22.17;100.00;101421.84;5052293;28;20112;-46
2023/08/12 09:23:00;;;;;;;0.00;0.00;;;;;;;22.87;100.00;101420.66;5070138;28;20017;-43
2023/08/12 09:25:29;;;;;;;0.00;0.00;;;;;;;23.56;100.00;101436.78;5050574;28;20489;-43
2023/08/12 09:27:56;;;;;;;0.00;0.00;;;;;;;23.64;100.00;101436.34;5050290;28;20079;-49
2023/08/12 09:30:22;;;;;;;0.00;0.00;;;;;;;23.67;100.00;101433.09;5046767;28;20034;-44
2023/08/12 09:33:06;;;;;;;0.00;0.00;;;;;;;23.16;100.00;101446.13;5070107;28;20040;-43
2023/08/12 09:35:37;;;;;;;0.00;0.00;;;;;;;22.77;100.00;101454.25;5070249;28;20112;-45
2023/08/12 09:38:04;;;;;;;0.00;0.00;;;;;;;22.20;100.00;101448.84;5070157;28;20028;-43
2023/08/12 09:40:31;;;;;;;0.00;0.00;;;;;;;22.00;100.00;101446.50;5052134;28;20063;-45
2023/08/12 09:42:56;;;;;;;0.00;0.00;;;;;;;21.87;100.00;101444.84;5052480;28;20372;-47
2023/08/12 09:45:25;;;;;;;0.00;0.00;;;;;;;22.10;100.00;101461.22;5070228;28;20116;-44
2023/08/12 09:47:51;;;;;;;0.00;0.00;;;;;;;22.90;100.00;101464.91;5070328;28;20032;-46
2023/08/12 09:50:16;;;;;;;0.00;0.00;;;;;;;23.72;100.00;101460.66;5052373;28;20040;-48
2023/08/12 09:52:42;;;;;;;0.00;0.00;;;;;;;23.99;100.00;101455.25;5072224;28;20032;-46
2023/08/12 09:55:08;;;;;;;0.00;0.00;;;;;;;23.99;100.00;101455.25;5055906;28;20479;-45
2023/08/12 09:57:34;;;;;;;0.00;0.00;;;;;;;24.69;100.00;101459.03;5074093;28;20459;-47
2023/08/12 10:00:00;;;;;;;0.00;0.00;;;;;;;25.16;100.00;101452.81;5074012;28;20049;-43
2023/08/12 10:02:26;;;;;;;0.00;0.00;;;;;;;25.53;100.00;101456.63;5055820;28;20375;-45
2023/08/12 10:04:56;;;;;;;0.00;0.00;;;;;;;26.31;100.00;101451.19;5073327;28;20024;-44
2023/08/12 10:07:21;;;;;;;0.00;0.00;;;;;;;26.87;100.00;101456.78;5056316;28;20120;-43
2023/08/12 10:09:47;;;;;;;0.00;0.00;;;;;;;26.85;100.00;101460.91;5055957;28;20033;-42
2023/08/12 10:12:12;;;;;;;0.00;0.00;;;;;;;26.72;100.00;101467.81;5073937;28;20352;-44
2023/08/12 10:14:38;;;;;;;0.00;0.00;;;;;;;26.41;100.00;101458.63;5056252;28;20379;-45
2023/08/12 10:17:04;;;;;;;0.00;0.00;;;;;;;26.04;100.00;101463.25;5056097;28;20060;-45
2023/08/12 10:19:30;;;;;;;0.00;0.00;;;;;;;26.49;100.00;101453.41;5055666;28;20028;-47
2023/08/12 10:21:59;;;;;;;0.00;0.00;;;;;;;26.67;100.00;101465.03;5066263;28;20031;-49
2023/08/12 10:24:26;;;;;;;0.00;0.00;;;;;;;27.08;100.00;101468.63;5087679;28;20112;-48
2023/08/12 10:26:52;;;;;;;0.00;0.00;;;;;;;27.01;100.00;101467.25;5071289;28;20043;-45
2023/08/12 10:29:18;;;;;;;0.00;0.00;;;;;;;27.15;100.00;101457.31;5073207;28;20511;-45
2023/08/12 10:31:44;;;;;;;0.00;0.00;;;;;;;26.74;100.00;101454.56;5071622;28;20025;-48
2023/08/12 10:34:21;;;;;;;0.00;0.00;;;;;;;26.90;100.00;101458.97;5052430;28;20029;-43
2023/08/12 10:36:47;;;;;;;0.00;0.00;;;;;;;26.88;100.00;101455.69;5070839;28;20260;-44
2023/08/12 10:39:13;;;;;;;0.00;0.00;;;;;;;26.63;100.00;101447.38;5051696;28;20028;-46
2023/08/12 10:41:39;;;;;;;0.00;0.00;;;;;;;26.77;100.00;101442.13;5053238;28;20390;-46
2023/08/12 10:44:05;;;;;;;0.00;0.00;;;;;;;27.52;100.00;101447.88;5054203;28;20342;-47
2023/08/12 10:46:33;;;;;;;0.00;0.00;;;;;;;28.16;100.00;101449.00;5071299;28;20784;-44
2023/08/12 10:49:07;;;;;;;0.00;0.00;;;;;;;28.01;99.59;101455.41;5069901;28;20069;-44
2023/08/12 10:52:02;;;;;;;0.00;0.00;;;;;;;27.99;98.53;101449.38;5071132;28;20024;-43
2023/08/12 10:54:30;;;;;;;0.00;0.00;;;;;;;28.33;94.34;101443.91;5047640;28;20556;-45
2023/08/12 10:57:08;;;;;;;0.00;0.00;;;;;;;27.90;96.97;101443.59;5071510;28;20033;-42
2023/08/12 10:59:46;;;;;;;0.00;0.00;;;;;;;28.47;96.37;101444.13;5069473;28;20056;-45
2023/08/12 11:02:27;;;;;;;0.00;0.00;;;;;;;28.73;95.12;101435.63;5070771;28;20486;-42
2023/08/12 11:04:57;;;;;;;0.00;0.00;;;;;;;28.61;96.53;101442.34;5067194;28;20395;-43
2023/08/12 11:07:37;;;;;;;0.00;0.00;;;;;;;28.80;97.04;101439.69;5064490;28;20048;-46
2023/08/12 11:10:26;;;;;;;0.00;0.00;;;;;;;29.13;98.89;101439.97;5069877;28;20040;-43
2023/08/12 11:12:51;;;;;;;0.00;0.00;;;;;;;29.27;92.39;101442.88;5059180;28;20048;-46